sensor_id;sensor_type;location;lat;lon;timestamp;temperature;humidity
24148;DHT22;12309;51.450;-2.624;2023-07-31T00:00:12;17.00;99.90
24148;DHT22;12309;51.450;-2.624;2023-07-31T00:02:38;17.10;99.90
24148;DHT22;12309;51.450;-2.624;2023-07-31T00:05:04;17.00;99.90
24148;DHT22;12309;51.450;-2.624;2023-07-31T00:07:30;17.10;99.90
24148;DHT22;12309;51.450;-2.624;2023-07-31T00:09:56;17.10;99.90
24148;DHT22;12309;51.450;-2.624;2023-07-31T00:15:46;17.10;99.90
24148;DHT22;12309;51.450;-2.624;2023-07-31T00:18:11;17.10;99.90
24148;DHT22;12309;51.450;-2.624;2023-07-31T00:20:37;17.10;99.90
24148;DHT22;12309;51.450;-2.624;2023-07-31T00:23:02;16.70;99.90
24148;DHT22;12309;51.450;-2.624;2023-07-31T00:25:28;17.10;99.90
24148;DHT22;12309;51.450;-2.624;2023-07-31T00:30:19;17.10;99.90
24148;DHT22;12309;51.450;-2.624;2023-07-31T00:32:45;17.10;99.90
24148;DHT22;12309;51.450;-2.624;2023-07-31T00:35:11;17.10;99.90
24148;DHT22;12309;51.450;-2.624;2023-07-31T00:37:36;17.30;99.90
24148;DHT22;12309;51.450;-2.624;2023-07-31T00:40:02;17.10;99.90
24148;DHT22;12309;51.450;-2.624;2023-07-31T00:42:29;17.10;99.90
24148;DHT22;12309;51.450;-2.624;2023-07-31T00:44:54;17.10;99.90
24148;DHT22;12309;51.450;-2.624;2023-07-31T00:47:20;17.10;99.90
24148;DHT22;12309;51.450;-2.624;2023-07-31T00:49:45;17.20;99.90
24148;DHT22;12309;51.450;-2.624;2023-07-31T00:52:11;17.20;99.90
24148;DHT22;12309;51.450;-2.624;2023-07-31T00:54:37;17.20;99.90
24148;DHT22;12309;51.450;-2.624;2023-07-31T00:57:03;17.20;99.90
24148;DHT22;12309;51.450;-2.624;2023-07-31T00:59:28;17.20;99.90
24148;DHT22;12309;51.450;-2.624;2023-07-31T01:01:54;17.20;99.90
24148;DHT22;12309;51.450;-2.624;2023-07-31T01:04:21;17.20;99.90
24148;DHT22;12309;51.450;-2.624;2023-07-31T01:07:14;17.20;99.90
24148;DHT22;12309;51.450;-2.624;2023-07-31T01:10:10;17.10;99.90
24148;DHT22;12309;51.450;-2.624;2023-07-31T01:12:38;17.10;99.90
24148;DHT22;12309;51.450;-2.624;2023-07-31T01:15:09;16.30;99.90
24148;DHT22;12309;51.450;-2.624;2023-07-31T01:17:38;17.20;99.90
24148;DHT22;12309;51.450;-2.624;2023-07-31T01:20:08;17.10;99.90
24148;DHT22;12309;51.450;-2.624;2023-07-31T01:23:08;17.20;99.90
24148;DHT22;12309;51.450;-2.624;2023-07-31T01:26:05;17.20;99.90
24148;DHT22;12309;51.450;-2.624;2023-07-31T01:28:55;17.20;99.90
24148;DHT22;12309;51.450;-2.624;2023-07-31T01:31:24;17.20;99.90
24148;DHT22;12309;51.450;-2.624;2023-07-31T01:33:52;17.40;99.90
24148;DHT22;12309;51.450;-2.624;2023-07-31T01:36:19;17.20;99.90
24148;DHT22;12309;51.450;-2.624;2023-07-31T01:38:45;17.20;99.90
24148;DHT22;12309;51.450;-2.624;2023-07-31T01:41:11;17.20;99.90
24148;DHT22;12309;51.450;-2.624;2023-07-31T01:43:36;17.20;99.90
24148;DHT22;12309;51.450;-2.624;2023-07-31T01:46:02;17.20;99.90
24148;DHT22;12309;51.450;-2.624;2023-07-31T01:48:27;17.20;99.90
24148;DHT22;12309;51.450;-2.624;2023-07-31T01:50:53;17.30;99.90
24148;DHT22;12309;51.450;-2.624;2023-07-31T01:53:19;17.30;99.90
24148;DHT22;12309;51.450;-2.624;2023-07-31T01:55:44;17.30;99.90
24148;DHT22;12309;51.450;-2.624;2023-07-31T01:58:10;17.30;99.90
24148;DHT22;12309;51.450;-2.624;2023-07-31T02:00:35;17.30;99.90
24148;DHT22;12309;51.450;-2.624;2023-07-31T02:03:01;17.30;99.90
24148;DHT22;12309;51.450;-2.624;2023-07-31T02:05:27;17.30;99.90
24148;DHT22;12309;51.450;-2.624;2023-07-31T02:07:52;17.40;99.90
24148;DHT22;12309;51.450;-2.624;2023-07-31T02:10:18;17.40;99.90
24148;DHT22;12309;51.450;-2.624;2023-07-31T02:12:43;17.50;99.90
24148;DHT22;12309;51.450;-2.624;2023-07-31T02:15:09;17.50;99.90
24148;DHT22;12309;51.450;-2.624;2023-07-31T02:17:35;17.50;99.90
24148;DHT22;12309;51.450;-2.624;2023-07-31T02:20:01;17.50;99.90
24148;DHT22;12309;51.450;-2.624;2023-07-31T02:22:26;17.60;99.90
24148;DHT22;12309;51.450;-2.624;2023-07-31T02:24:52;17.60;99.90
24148;DHT22;12309;51.450;-2.624;2023-07-31T02:27:17;17.50;99.90
24148;DHT22;12309;51.450;-2.624;2023-07-31T02:29:43;17.50;99.90
24148;DHT22;12309;51.450;-2.624;2023-07-31T02:32:09;17.50;99.90
24148;DHT22;12309;51.450;-2.624;2023-07-31T02:34:34;17.50;99.90
24148;DHT22;12309;51.450;-2.624;2023-07-31T02:37:00;17.40;99.90
24148;DHT22;12309;51.450;-2.624;2023-07-31T02:39:25;17.40;99.90
24148;DHT22;12309;51.450;-2.624;2023-07-31T02:41:51;17.40;99.90
24148;DHT22;12309;51.450;-2.624;2023-07-31T02:44:17;17.40;99.90
24148;DHT22;12309;51.450;-2.624;2023-07-31T02:46:42;17.40;99.90
24148;DHT22;12309;51.450;-2.624;2023-07-31T02:49:08;17.40;99.90
24148;DHT22;12309;51.450;-2.624;2023-07-31T02:51:33;17.40;99.90
24148;DHT22;12309;51.450;-2.624;2023-07-31T02:53:59;17.40;99.90
24148;DHT22;12309;51.450;-2.624;2023-07-31T02:56:25;17.40;99.90
24148;DHT22;12309;51.450;-2.624;2023-07-31T02:58:50;17.30;99.90
24148;DHT22;12309;51.450;-2.624;2023-07-31T03:01:16;17.30;99.90
24148;DHT22;12309;51.450;-2.624;2023-07-31T03:03:41;17.30;99.90
24148;DHT22;12309;51.450;-2.624;2023-07-31T03:06:07;17.30;99.90
24148;DHT22;12309;51.450;-2.624;2023-07-31T03:08:33;17.30;99.90
24148;DHT22;12309;51.450;-2.624;2023-07-31T03:10:58;17.30;99.90
24148;DHT22;12309;51.450;-2.624;2023-07-31T03:13:24;17.30;99.90
24148;DHT22;12309;51.450;-2.624;2023-07-31T03:15:50;17.40;99.90
24148;DHT22;12309;51.450;-2.624;2023-07-31T03:18:16;17.40;99.90
24148;DHT22;12309;51.450;-2.624;2023-07-31T03:20:44;17.40;99.90
24148;DHT22;12309;51.450;-2.624;2023-07-31T03:23:10;17.40;99.90
24148;DHT22;12309;51.450;-2.624;2023-07-31T03:25:36;17.30;99.90
24148;DHT22;12309;51.450;-2.624;2023-07-31T03:28:01;17.30;99.90
24148;DHT22;12309;51.450;-2.624;2023-07-31T03:30:27;17.30;99.90
24148;DHT22;12309;51.450;-2.624;2023-07-31T03:32:52;17.30;99.90
24148;DHT22;12309;51.450;-2.624;2023-07-31T03:35:18;17.30;99.90
24148;DHT22;12309;51.450;-2.624;2023-07-31T03:37:44;17.30;99.90
24148;DHT22;12309;51.450;-2.624;2023-07-31T03:40:10;17.20;99.90
24148;DHT22;12309;51.450;-2.624;2023-07-31T03:42:35;17.20;99.90
24148;DHT22;12309;51.450;-2.624;2023-07-31T03:45:01;17.20;99.90
24148;DHT22;12309;51.450;-2.624;2023-07-31T03:47:27;17.20;99.90
24148;DHT22;12309;51.450;-2.624;2023-07-31T03:49:53;17.20;99.90
24148;DHT22;12309;51.450;-2.624;2023-07-31T03:52:18;17.20;99.90
24148;DHT22;12309;51.450;-2.624;2023-07-31T03:54:44;17.00;99.90
24148;DHT22;12309;51.450;-2.624;2023-07-31T03:57:10;17.00;99.90
24148;DHT22;12309;51.450;-2.624;2023-07-31T03:59:36;18.10;99.90
24148;DHT22;12309;51.450;-2.624;2023-07-31T04:02:04;16.90;99.90
24148;DHT22;12309;51.450;-2.624;2023-07-31T04:06:56;16.80;99.90
24148;DHT22;12309;51.450;-2.624;2023-07-31T04:09:21;16.80;99.90
24148;DHT22;12309;51.450;-2.624;2023-07-31T04:11:47;16.80;99.90
24148;DHT22;12309;51.450;-2.624;2023-07-31T04:14:12;16.80;99.90
24148;DHT22;12309;51.450;-2.624;2023-07-31T04:16:38;16.80;99.90
24148;DHT22;12309;51.450;-2.624;2023-07-31T04:19:04;16.80;99.90
24148;DHT22;12309;51.450;-2.624;2023-07-31T04:21:29;16.80;99.90
24148;DHT22;12309;51.450;-2.624;2023-07-31T04:23:55;16.90;99.90
24148;DHT22;12309;51.450;-2.624;2023-07-31T04:26:21;16.90;99.90
24148;DHT22;12309;51.450;-2.624;2023-07-31T04:28:47;17.00;99.90
24148;DHT22;12309;51.450;-2.624;2023-07-31T04:31:13;16.90;99.90
24148;DHT22;12309;51.450;-2.624;2023-07-31T04:33:38;16.80;99.90
24148;DHT22;12309;51.450;-2.624;2023-07-31T04:36:05;16.80;99.90
24148;DHT22;12309;51.450;-2.624;2023-07-31T04:38:30;16.80;99.90
24148;DHT22;12309;51.450;-2.624;2023-07-31T04:40:56;16.80;99.90
24148;DHT22;12309;51.450;-2.624;2023-07-31T04:43:22;16.90;99.90
24148;DHT22;12309;51.450;-2.624;2023-07-31T04:45:48;17.00;99.90
24148;DHT22;12309;51.450;-2.624;2023-07-31T04:48:14;17.30;99.90
24148;DHT22;12309;51.450;-2.624;2023-07-31T04:50:40;16.90;99.90
24148;DHT22;12309;51.450;-2.624;2023-07-31T04:57:59;16.80;99.90
24148;DHT22;12309;51.450;-2.624;2023-07-31T05:00:24;17.00;99.90
24148;DHT22;12309;51.450;-2.624;2023-07-31T05:07:42;16.80;99.90
24148;DHT22;12309;51.450;-2.624;2023-07-31T05:10:08;16.90;99.90
24148;DHT22;12309;51.450;-2.624;2023-07-31T05:12:34;17.10;99.90
24148;DHT22;12309;51.450;-2.624;2023-07-31T05:17:25;16.70;99.90
24148;DHT22;12309;51.450;-2.624;2023-07-31T05:19:51;16.90;99.90
24148;DHT22;12309;51.450;-2.624;2023-07-31T05:22:16;16.90;99.90
24148;DHT22;12309;51.450;-2.624;2023-07-31T05:24:42;16.90;99.90
24148;DHT22;12309;51.450;-2.624;2023-07-31T05:27:08;16.90;99.90
24148;DHT22;12309;51.450;-2.624;2023-07-31T05:32:01;16.90;99.90
24148;DHT22;12309;51.450;-2.624;2023-07-31T05:36:53;16.90;99.90
24148;DHT22;12309;51.450;-2.624;2023-07-31T05:39:19;16.90;99.90
24148;DHT22;12309;51.450;-2.624;2023-07-31T05:41:45;16.90;99.90
24148;DHT22;12309;51.450;-2.624;2023-07-31T05:46:37;16.90;99.90
24148;DHT22;12309;51.450;-2.624;2023-07-31T05:49:02;16.80;99.90
24148;DHT22;12309;51.450;-2.624;2023-07-31T05:51:28;16.60;99.90
24148;DHT22;12309;51.450;-2.624;2023-07-31T05:56:20;16.80;99.90
24148;DHT22;12309;51.450;-2.624;2023-07-31T05:58:45;16.80;99.90
24148;DHT22;12309;51.450;-2.624;2023-07-31T06:01:11;16.90;99.90
24148;DHT22;12309;51.450;-2.624;2023-07-31T06:03:37;17.00;99.90
24148;DHT22;12309;51.450;-2.624;2023-07-31T06:06:02;16.90;99.90
24148;DHT22;12309;51.450;-2.624;2023-07-31T06:08:28;16.80;99.90
24148;DHT22;12309;51.450;-2.624;2023-07-31T06:10:53;17.10;99.90
24148;DHT22;12309;51.450;-2.624;2023-07-31T06:18:11;17.00;99.90
24148;DHT22;12309;51.450;-2.624;2023-07-31T06:20:37;17.00;99.90
24148;DHT22;12309;51.450;-2.624;2023-07-31T06:23:02;17.00;99.90
24148;DHT22;12309;51.450;-2.624;2023-07-31T06:25:29;17.00;99.90
24148;DHT22;12309;51.450;-2.624;2023-07-31T06:27:54;17.00;99.90
24148;DHT22;12309;51.450;-2.624;2023-07-31T06:30:20;17.00;99.90
24148;DHT22;12309;51.450;-2.624;2023-07-31T06:32:45;17.10;99.90
24148;DHT22;12309;51.450;-2.624;2023-07-31T06:35:11;17.10;99.90
24148;DHT22;12309;51.450;-2.624;2023-07-31T06:37:37;17.10;99.90
24148;DHT22;12309;51.450;-2.624;2023-07-31T06:40:06;17.20;99.90
24148;DHT22;12309;51.450;-2.624;2023-07-31T06:42:34;17.20;99.90
24148;DHT22;12309;51.450;-2.624;2023-07-31T06:45:01;17.30;99.90
24148;DHT22;12309;51.450;-2.624;2023-07-31T06:47:26;17.30;99.90
24148;DHT22;12309;51.450;-2.624;2023-07-31T06:52:18;17.30;99.90
24148;DHT22;12309;51.450;-2.624;2023-07-31T06:54:44;17.70;99.90
24148;DHT22;12309;51.450;-2.624;2023-07-31T06:57:10;17.50;99.90
24148;DHT22;12309;51.450;-2.624;2023-07-31T06:59:35;17.70;99.90
24148;DHT22;12309;51.450;-2.624;2023-07-31T07:02:01;17.70;99.90
24148;DHT22;12309;51.450;-2.624;2023-07-31T07:04:26;17.70;99.90
24148;DHT22;12309;51.450;-2.624;2023-07-31T07:06:52;17.80;99.90
24148;DHT22;12309;51.450;-2.624;2023-07-31T07:09:18;17.80;99.90
24148;DHT22;12309;51.450;-2.624;2023-07-31T07:11:43;17.80;99.90
24148;DHT22;12309;51.450;-2.624;2023-07-31T07:14:09;17.80;99.90
24148;DHT22;12309;51.450;-2.624;2023-07-31T07:16:35;17.80;99.90
24148;DHT22;12309;51.450;-2.624;2023-07-31T07:19:01;17.70;99.90
24148;DHT22;12309;51.450;-2.624;2023-07-31T07:21:26;17.90;99.90
24148;DHT22;12309;51.450;-2.624;2023-07-31T07:23:52;17.90;99.90
24148;DHT22;12309;51.450;-2.624;2023-07-31T07:26:18;18.00;99.90
24148;DHT22;12309;51.450;-2.624;2023-07-31T07:28:43;18.00;99.90
24148;DHT22;12309;51.450;-2.624;2023-07-31T07:31:09;18.00;99.90
24148;DHT22;12309;51.450;-2.624;2023-07-31T07:33:34;18.00;99.90
24148;DHT22;12309;51.450;-2.624;2023-07-31T07:36:01;18.20;99.90
24148;DHT22;12309;51.450;-2.624;2023-07-31T07:38:27;18.10;99.90
24148;DHT22;12309;51.450;-2.624;2023-07-31T07:40:53;18.10;99.90
24148;DHT22;12309;51.450;-2.624;2023-07-31T07:43:19;18.10;99.90
24148;DHT22;12309;51.450;-2.624;2023-07-31T07:45:44;18.20;99.90
24148;DHT22;12309;51.450;-2.624;2023-07-31T07:48:10;18.20;99.90
24148;DHT22;12309;51.450;-2.624;2023-07-31T07:50:37;18.10;99.90
24148;DHT22;12309;51.450;-2.624;2023-07-31T07:53:03;18.00;99.90
24148;DHT22;12309;51.450;-2.624;2023-07-31T07:55:29;17.90;99.90
24148;DHT22;12309;51.450;-2.624;2023-07-31T07:57:54;17.90;99.90
24148;DHT22;12309;51.450;-2.624;2023-07-31T08:00:20;17.80;99.90
24148;DHT22;12309;51.450;-2.624;2023-07-31T08:02:46;17.90;99.90
24148;DHT22;12309;51.450;-2.624;2023-07-31T08:05:12;17.90;99.90
24148;DHT22;12309;51.450;-2.624;2023-07-31T08:07:37;17.90;99.90
24148;DHT22;12309;51.450;-2.624;2023-07-31T08:10:03;17.90;99.90
24148;DHT22;12309;51.450;-2.624;2023-07-31T08:12:29;17.90;99.90
24148;DHT22;12309;51.450;-2.624;2023-07-31T08:14:54;17.90;99.90
24148;DHT22;12309;51.450;-2.624;2023-07-31T08:17:20;17.80;99.90
24148;DHT22;12309;51.450;-2.624;2023-07-31T08:19:46;17.80;99.90
24148;DHT22;12309;51.450;-2.624;2023-07-31T08:22:11;17.80;99.90
24148;DHT22;12309;51.450;-2.624;2023-07-31T08:24:37;17.80;99.90
24148;DHT22;12309;51.450;-2.624;2023-07-31T08:27:02;17.90;99.90
24148;DHT22;12309;51.450;-2.624;2023-07-31T08:29:28;17.90;99.90
24148;DHT22;12309;51.450;-2.624;2023-07-31T08:31:54;17.90;99.90
24148;DHT22;12309;51.450;-2.624;2023-07-31T08:34:19;18.10;99.90
24148;DHT22;12309;51.450;-2.624;2023-07-31T08:36:45;18.00;99.90
24148;DHT22;12309;51.450;-2.624;2023-07-31T08:39:10;18.00;99.90
24148;DHT22;12309;51.450;-2.624;2023-07-31T08:41:39;17.70;99.90
24148;DHT22;12309;51.450;-2.624;2023-07-31T08:44:05;18.10;99.90
24148;DHT22;12309;51.450;-2.624;2023-07-31T08:46:31;18.10;99.90
24148;DHT22;12309;51.450;-2.624;2023-07-31T08:48:59;18.20;99.90
24148;DHT22;12309;51.450;-2.624;2023-07-31T08:51:25;18.40;99.90
24148;DHT22;12309;51.450;-2.624;2023-07-31T08:53:53;18.20;99.90
24148;DHT22;12309;51.450;-2.624;2023-07-31T08:56:18;18.10;99.90
24148;DHT22;12309;51.450;-2.624;2023-07-31T08:58:46;18.00;99.90
24148;DHT22;12309;51.450;-2.624;2023-07-31T09:01:13;18.10;99.90
24148;DHT22;12309;51.450;-2.624;2023-07-31T09:03:39;18.10;99.90
24148;DHT22;12309;51.450;-2.624;2023-07-31T09:06:06;18.20;99.90
24148;DHT22;12309;51.450;-2.624;2023-07-31T09:08:32;18.30;99.90
24148;DHT22;12309;51.450;-2.624;2023-07-31T09:11:02;18.30;99.90
24148;DHT22;12309;51.450;-2.624;2023-07-31T09:13:32;18.40;99.90
24148;DHT22;12309;51.450;-2.624;2023-07-31T09:15:58;18.30;99.90
24148;DHT22;12309;51.450;-2.624;2023-07-31T09:18:23;18.20;99.90
24148;DHT22;12309;51.450;-2.624;2023-07-31T09:21:02;17.90;99.90
24148;DHT22;12309;51.450;-2.624;2023-07-31T09:23:40;17.80;99.90
24148;DHT22;12309;51.450;-2.624;2023-07-31T09:26:07;17.50;99.90
24148;DHT22;12309;51.450;-2.624;2023-07-31T09:28:32;17.70;99.90
24148;DHT22;12309;51.450;-2.624;2023-07-31T09:30:58;17.70;99.90
24148;DHT22;12309;51.450;-2.624;2023-07-31T09:33:23;17.70;99.90
24148;DHT22;12309;51.450;-2.624;2023-07-31T09:35:49;17.80;99.90
24148;DHT22;12309;51.450;-2.624;2023-07-31T09:38:15;17.90;99.90
24148;DHT22;12309;51.450;-2.624;2023-07-31T09:40:43;18.00;99.90
24148;DHT22;12309;51.450;-2.624;2023-07-31T09:43:17;18.10;99.90
24148;DHT22;12309;51.450;-2.624;2023-07-31T09:45:43;18.40;99.90
24148;DHT22;12309;51.450;-2.624;2023-07-31T09:48:17;18.80;99.90
24148;DHT22;12309;51.450;-2.624;2023-07-31T09:50:47;19.00;99.90
24148;DHT22;12309;51.450;-2.624;2023-07-31T09:53:14;19.30;99.90
24148;DHT22;12309;51.450;-2.624;2023-07-31T09:55:41;19.10;99.90
24148;DHT22;12309;51.450;-2.624;2023-07-31T09:58:11;19.20;99.90
24148;DHT22;12309;51.450;-2.624;2023-07-31T10:00:37;19.20;99.90
24148;DHT22;12309;51.450;-2.624;2023-07-31T10:03:08;19.10;99.90
24148;DHT22;12309;51.450;-2.624;2023-07-31T10:05:36;18.80;99.90
24148;DHT22;12309;51.450;-2.624;2023-07-31T10:08:03;18.90;99.90
24148;DHT22;12309;51.450;-2.624;2023-07-31T10:10:29;18.50;99.90
24148;DHT22;12309;51.450;-2.624;2023-07-31T10:12:56;18.30;99.90
24148;DHT22;12309;51.450;-2.624;2023-07-31T10:15:23;18.40;99.90
24148;DHT22;12309;51.450;-2.624;2023-07-31T10:17:50;18.30;99.90
24148;DHT22;12309;51.450;-2.624;2023-07-31T10:20:16;18.20;99.90
24148;DHT22;12309;51.450;-2.624;2023-07-31T10:22:43;18.10;99.90
24148;DHT22;12309;51.450;-2.624;2023-07-31T10:25:09;17.80;99.90
24148;DHT22;12309;51.450;-2.624;2023-07-31T10:27:36;18.00;99.90
24148;DHT22;12309;51.450;-2.624;2023-07-31T10:30:04;18.10;99.90
24148;DHT22;12309;51.450;-2.624;2023-07-31T10:32:31;18.40;99.90
24148;DHT22;12309;51.450;-2.624;2023-07-31T10:34:57;18.50;99.90
24148;DHT22;12309;51.450;-2.624;2023-07-31T10:37:27;18.50;99.90
24148;DHT22;12309;51.450;-2.624;2023-07-31T10:40:00;18.40;99.90
24148;DHT22;12309;51.450;-2.624;2023-07-31T10:45:10;18.30;99.90
24148;DHT22;12309;51.450;-2.624;2023-07-31T10:47:38;18.30;99.90
24148;DHT22;12309;51.450;-2.624;2023-07-31T10:50:16;18.30;99.90
24148;DHT22;12309;51.450;-2.624;2023-07-31T10:52:46;18.00;99.90
24148;DHT22;12309;51.450;-2.624;2023-07-31T10:55:16;17.90;99.90
24148;DHT22;12309;51.450;-2.624;2023-07-31T10:57:48;18.00;99.90
24148;DHT22;12309;51.450;-2.624;2023-07-31T11:00:29;18.10;99.90
24148;DHT22;12309;51.450;-2.624;2023-07-31T11:08:21;17.60;99.90
24148;DHT22;12309;51.450;-2.624;2023-07-31T11:10:49;17.80;99.90
24148;DHT22;12309;51.450;-2.624;2023-07-31T11:13:15;17.90;99.90
24148;DHT22;12309;51.450;-2.624;2023-07-31T11:15:41;17.90;99.90
24148;DHT22;12309;51.450;-2.624;2023-07-31T11:18:06;18.00;99.90
24148;DHT22;12309;51.450;-2.624;2023-07-31T11:20:34;18.10;99.90
24148;DHT22;12309;51.450;-2.624;2023-07-31T11:23:06;17.50;99.90
24148;DHT22;12309;51.450;-2.624;2023-07-31T11:25:32;17.80;99.90
24148;DHT22;12309;51.450;-2.624;2023-07-31T11:28:06;17.80;99.90
24148;DHT22;12309;51.450;-2.624;2023-07-31T11:30:32;17.80;99.90
24148;DHT22;12309;51.450;-2.624;2023-07-31T11:32:58;17.80;99.90
24148;DHT22;12309;51.450;-2.624;2023-07-31T11:35:24;17.70;99.90
24148;DHT22;12309;51.450;-2.624;2023-07-31T11:37:50;17.70;99.90
24148;DHT22;12309;51.450;-2.624;2023-07-31T11:40:18;17.50;99.90
24148;DHT22;12309;51.450;-2.624;2023-07-31T11:42:43;17.50;99.90
24148;DHT22;12309;51.450;-2.624;2023-07-31T11:45:09;17.60;99.90
24148;DHT22;12309;51.450;-2.624;2023-07-31T11:47:37;17.60;99.90
24148;DHT22;12309;51.450;-2.624;2023-07-31T11:50:04;17.60;99.90
24148;DHT22;12309;51.450;-2.624;2023-07-31T11:52:35;17.40;99.90
24148;DHT22;12309;51.450;-2.624;2023-07-31T11:55:02;17.40;99.90
24148;DHT22;12309;51.450;-2.624;2023-07-31T11:57:29;17.30;99.90
24148;DHT22;12309;51.450;-2.624;2023-07-31T11:59:55;17.30;99.90
24148;DHT22;12309;51.450;-2.624;2023-07-31T12:02:21;17.70;99.90
24148;DHT22;12309;51.450;-2.624;2023-07-31T12:04:47;17.00;99.90
24148;DHT22;12309;51.450;-2.624;2023-07-31T12:07:13;16.90;99.90
24148;DHT22;12309;51.450;-2.624;2023-07-31T12:09:53;16.90;99.90
24148;DHT22;12309;51.450;-2.624;2023-07-31T12:12:25;16.80;99.90
24148;DHT22;12309;51.450;-2.624;2023-07-31T12:17:19;16.90;99.90
24148;DHT22;12309;51.450;-2.624;2023-07-31T12:19:48;16.90;99.90
24148;DHT22;12309;51.450;-2.624;2023-07-31T12:22:15;16.70;99.90
24148;DHT22;12309;51.450;-2.624;2023-07-31T12:24:42;16.70;99.90
24148;DHT22;12309;51.450;-2.624;2023-07-31T12:27:14;16.60;99.90
24148;DHT22;12309;51.450;-2.624;2023-07-31T12:29:43;16.70;99.90
24148;DHT22;12309;51.450;-2.624;2023-07-31T12:32:23;16.60;99.90
24148;DHT22;12309;51.450;-2.624;2023-07-31T12:34:50;16.60;99.90
24148;DHT22;12309;51.450;-2.624;2023-07-31T12:37:16;16.60;99.90
24148;DHT22;12309;51.450;-2.624;2023-07-31T12:39:42;16.50;99.90
24148;DHT22;12309;51.450;-2.624;2023-07-31T12:42:07;16.50;99.90
24148;DHT22;12309;51.450;-2.624;2023-07-31T12:44:33;16.40;99.90
24148;DHT22;12309;51.450;-2.624;2023-07-31T12:46:59;16.60;99.90
24148;DHT22;12309;51.450;-2.624;2023-07-31T12:49:24;16.50;99.90
24148;DHT22;12309;51.450;-2.624;2023-07-31T12:51:50;16.20;99.90
24148;DHT22;12309;51.450;-2.624;2023-07-31T12:54:15;16.10;99.90
24148;DHT22;12309;51.450;-2.624;2023-07-31T12:56:41;16.30;99.90
24148;DHT22;12309;51.450;-2.624;2023-07-31T12:59:07;16.20;99.90
24148;DHT22;12309;51.450;-2.624;2023-07-31T13:01:32;16.20;99.90
24148;DHT22;12309;51.450;-2.624;2023-07-31T13:03:58;16.20;99.90
24148;DHT22;12309;51.450;-2.624;2023-07-31T13:06:25;16.30;99.90
24148;DHT22;12309;51.450;-2.624;2023-07-31T13:08:51;16.40;99.90
24148;DHT22;12309;51.450;-2.624;2023-07-31T13:11:16;16.60;99.90
24148;DHT22;12309;51.450;-2.624;2023-07-31T13:13:42;16.70;99.90
24148;DHT22;12309;51.450;-2.624;2023-07-31T13:16:08;16.80;99.90
24148;DHT22;12309;51.450;-2.624;2023-07-31T13:18:33;16.70;99.90
24148;DHT22;12309;51.450;-2.624;2023-07-31T13:20:59;16.80;99.90
24148;DHT22;12309;51.450;-2.624;2023-07-31T13:23:24;16.90;99.90
24148;DHT22;12309;51.450;-2.624;2023-07-31T13:25:50;16.80;99.90
24148;DHT22;12309;51.450;-2.624;2023-07-31T13:28:15;16.90;99.90
24148;DHT22;12309;51.450;-2.624;2023-07-31T13:33:07;16.90;99.90
24148;DHT22;12309;51.450;-2.624;2023-07-31T13:35:32;17.60;99.90
24148;DHT22;12309;51.450;-2.624;2023-07-31T13:40:24;17.10;99.90
24148;DHT22;12309;51.450;-2.624;2023-07-31T13:42:50;17.50;99.90
24148;DHT22;12309;51.450;-2.624;2023-07-31T13:47:41;17.70;99.90
24148;DHT22;12309;51.450;-2.624;2023-07-31T13:50:07;17.80;99.90
24148;DHT22;12309;51.450;-2.624;2023-07-31T13:52:33;18.00;99.90
24148;DHT22;12309;51.450;-2.624;2023-07-31T13:54:58;18.40;99.90
24148;DHT22;12309;51.450;-2.624;2023-07-31T13:57:24;18.50;99.90
24148;DHT22;12309;51.450;-2.624;2023-07-31T13:59:50;18.60;99.90
24148;DHT22;12309;51.450;-2.624;2023-07-31T14:02:15;19.20;99.90
24148;DHT22;12309;51.450;-2.624;2023-07-31T14:04:41;19.40;99.90
24148;DHT22;12309;51.450;-2.624;2023-07-31T14:07:06;19.90;99.90
24148;DHT22;12309;51.450;-2.624;2023-07-31T14:09:32;19.70;99.90
24148;DHT22;12309;51.450;-2.624;2023-07-31T14:11:58;19.90;99.90
24148;DHT22;12309;51.450;-2.624;2023-07-31T14:14:23;20.00;99.90
24148;DHT22;12309;51.450;-2.624;2023-07-31T14:16:49;19.80;99.90
24148;DHT22;12309;51.450;-2.624;2023-07-31T14:19:15;19.50;99.90
24148;DHT22;12309;51.450;-2.624;2023-07-31T14:21:40;19.40;99.90
24148;DHT22;12309;51.450;-2.624;2023-07-31T14:24:06;19.60;99.90
24148;DHT22;12309;51.450;-2.624;2023-07-31T14:26:32;19.70;99.90
24148;DHT22;12309;51.450;-2.624;2023-07-31T14:28:57;20.60;99.90
24148;DHT22;12309;51.450;-2.624;2023-07-31T14:31:23;20.90;99.90
24148;DHT22;12309;51.450;-2.624;2023-07-31T14:33:49;20.90;99.90
24148;DHT22;12309;51.450;-2.624;2023-07-31T14:36:14;21.70;99.90
24148;DHT22;12309;51.450;-2.624;2023-07-31T14:38:40;22.70;99.90
24148;DHT22;12309;51.450;-2.624;2023-07-31T14:41:05;22.70;99.90
24148;DHT22;12309;51.450;-2.624;2023-07-31T14:43:31;22.90;99.90
24148;DHT22;12309;51.450;-2.624;2023-07-31T14:45:57;22.40;99.90
24148;DHT22;12309;51.450;-2.624;2023-07-31T14:48:25;22.40;99.90
24148;DHT22;12309;51.450;-2.624;2023-07-31T14:50:51;22.40;99.90
24148;DHT22;12309;51.450;-2.624;2023-07-31T14:53:16;22.50;99.90
24148;DHT22;12309;51.450;-2.624;2023-07-31T14:55:42;22.10;99.90
24148;DHT22;12309;51.450;-2.624;2023-07-31T14:58:08;21.80;99.90
24148;DHT22;12309;51.450;-2.624;2023-07-31T15:00:36;21.80;99.90
24148;DHT22;12309;51.450;-2.624;2023-07-31T15:03:02;21.70;99.90
24148;DHT22;12309;51.450;-2.624;2023-07-31T15:05:28;20.70;99.90
24148;DHT22;12309;51.450;-2.624;2023-07-31T15:07:53;20.60;99.90
24148;DHT22;12309;51.450;-2.624;2023-07-31T15:10:19;20.50;99.90
24148;DHT22;12309;51.450;-2.624;2023-07-31T15:15:11;21.20;99.90
24148;DHT22;12309;51.450;-2.624;2023-07-31T15:17:36;21.90;99.90
24148;DHT22;12309;51.450;-2.624;2023-07-31T15:20:02;20.90;99.90
24148;DHT22;12309;51.450;-2.624;2023-07-31T15:22:28;22.00;99.90
24148;DHT22;12309;51.450;-2.624;2023-07-31T15:24:55;21.60;99.90
24148;DHT22;12309;51.450;-2.624;2023-07-31T15:27:21;21.40;99.90
24148;DHT22;12309;51.450;-2.624;2023-07-31T15:29:47;21.40;99.90
24148;DHT22;12309;51.450;-2.624;2023-07-31T15:34:38;23.20;99.90
24148;DHT22;12309;51.450;-2.624;2023-07-31T15:37:04;23.40;99.90
24148;DHT22;12309;51.450;-2.624;2023-07-31T15:39:29;23.10;99.90
24148;DHT22;12309;51.450;-2.624;2023-07-31T15:41:55;22.60;99.90
24148;DHT22;12309;51.450;-2.624;2023-07-31T15:44:21;22.40;99.90
24148;DHT22;12309;51.450;-2.624;2023-07-31T15:46:47;21.90;99.90
24148;DHT22;12309;51.450;-2.624;2023-07-31T15:49:12;21.50;99.90
24148;DHT22;12309;51.450;-2.624;2023-07-31T15:51:38;21.30;99.90
24148;DHT22;12309;51.450;-2.624;2023-07-31T15:54:04;20.90;99.90
24148;DHT22;12309;51.450;-2.624;2023-07-31T15:56:30;20.90;99.90
24148;DHT22;12309;51.450;-2.624;2023-07-31T15:58:55;20.80;99.90
24148;DHT22;12309;51.450;-2.624;2023-07-31T16:01:24;20.60;99.90
24148;DHT22;12309;51.450;-2.624;2023-07-31T16:03:49;20.70;99.90
24148;DHT22;12309;51.450;-2.624;2023-07-31T16:06:17;20.90;99.90
24148;DHT22;12309;51.450;-2.624;2023-07-31T16:08:43;20.80;99.90
24148;DHT22;12309;51.450;-2.624;2023-07-31T16:11:09;20.70;99.90